TimeMDT,TemperatureF,Dew PointF,Humidity,Sea Level PressureIn,VisibilityMPH,Wind Direction,Wind SpeedMPH,Gust SpeedMPH,PrecipitationIn,Events,Conditions,WindDirDegrees,DateUTC
12:53 AM,18.0,12.0,78,30.41,10.0,West,5.8,-,N/A,,Clear,260,2013-03-24 06:53:00
1:53 AM,16.0,10.0,77,30.42,10.0,West,6.9,-,N/A,,Clear,280,2013-03-24 07:53:00
2:53 AM,16.0,9.0,74,30.42,10.0,West,8.1,-,N/A,,Clear,260,2013-03-24 08:53:00
3:53 AM,15.1,8.1,74,30.43,10.0,Calm,Calm,-,N/A,,Clear,0,2013-03-24 09:53:00
4:53 AM,12.9,7.0,77,30.44,10.0,WSW,3.5,-,N/A,,Clear,250,2013-03-24 10:53:00
5:53 AM,12.0,6.1,77,30.46,10.0,Calm,Calm,-,N/A,,Clear,0,2013-03-24 11:53:00
6:53 AM,14.0,7.0,74,30.46,10.0,Calm,Calm,-,N/A,,Clear,0,2013-03-24 12:53:00
7:53 AM,12.9,6.1,74,30.48,10.0,Calm,Calm,-,N/A,,Clear,0,2013-03-24 13:53:00
8:53 AM,15.1,9.0,77,30.48,10.0,Calm,Calm,-,N/A,,Clear,0,2013-03-24 14:53:00
9:53 AM,19.9,10.9,68,30.47,10.0,Calm,Calm,-,N/A,,Clear,0,2013-03-24 15:53:00
10:53 AM,24.1,12.0,60,30.46,10.0,Calm,Calm,-,N/A,,Clear,0,2013-03-24 16:53:00
11:53 AM,28.9,12.0,49,30.45,10.0,Calm,Calm,-,N/A,,Clear,0,2013-03-24 17:53:00
12:53 PM,33.1,6.1,32,30.42,10.0,Variable,3.5,-,N/A,,Clear,0,2013-03-24 18:53:00
1:53 PM,34.0,3.9,28,30.40,10.0,Variable,4.6,-,N/A,,Clear,0,2013-03-24 19:53:00
2:53 PM,37.0,3.9,25,30.38,10.0,Variable,6.9,-,N/A,,Clear,0,2013-03-24 20:53:00
3:53 PM,37.9,5.0,25,30.36,10.0,Variable,3.5,-,N/A,,Partly Cloudy,0,2013-03-24 21:53:00
4:53 PM,39.0,1.9,21,30.35,10.0,NW,3.5,-,N/A,,Clear,320,2013-03-24 22:53:00
5:53 PM,39.0,1.0,20,30.34,10.0,Calm,Calm,-,N/A,,Clear,0,2013-03-24 23:53:00
6:53 PM,37.9,-0.0,20,30.33,10.0,North,3.5,-,N/A,,Clear,10,2013-03-25 00:53:00
7:53 PM,34.0,1.0,25,30.33,10.0,Variable,4.6,-,N/A,,Clear,0,2013-03-25 01:53:00
8:53 PM,32.0,1.9,28,30.34,10.0,South,3.5,-,N/A,,Clear,190,2013-03-25 02:53:00
9:53 PM,27.0,3.9,37,30.33,10.0,WSW,5.8,-,N/A,,Clear,250,2013-03-25 03:53:00
10:53 PM,25.0,6.1,45,30.34,10.0,NW,3.5,-,N/A,,Clear,310,2013-03-25 04:53:00
11:53 PM,24.1,6.1,46,30.33,10.0,Calm,Calm,-,N/A,,Clear,0,2013-03-25 05:53:00